sensor_id;sensor_type;location;lat;lon;timestamp;P1;durP1;ratioP1;P2;durP2;ratioP2
68353;SDS011;55274;43.060;25.618;2023-02-15T00:01:10;29.13;;;11.73;;
68353;SDS011;55274;43.060;25.618;2023-02-15T00:03:37;32.00;;;11.70;;
68353;SDS011;55274;43.060;25.618;2023-02-15T00:06:03;30.38;;;13.02;;
68353;SDS011;55274;43.060;25.618;2023-02-15T00:08:30;33.00;;;12.57;;
68353;SDS011;55274;43.060;25.618;2023-02-15T00:11:09;31.55;;;12.98;;
68353;SDS011;55274;43.060;25.618;2023-02-15T00:13:39;28.40;;;12.02;;
68353;SDS011;55274;43.060;25.618;2023-02-15T00:16:11;30.65;;;12.10;;
68353;SDS011;55274;43.060;25.618;2023-02-15T00:18:38;34.90;;;13.98;;
68353;SDS011;55274;43.060;25.618;2023-02-15T00:21:05;30.45;;;11.93;;
68353;SDS011;55274;43.060;25.618;2023-02-15T00:23:32;33.30;;;13.80;;
68353;SDS011;55274;43.060;25.618;2023-02-15T00:26:05;40.05;;;14.68;;
68353;SDS011;55274;43.060;25.618;2023-02-15T00:28:32;38.92;;;14.80;;
68353;SDS011;55274;43.060;25.618;2023-02-15T00:31:02;33.88;;;14.13;;
68353;SDS011;55274;43.060;25.618;2023-02-15T00:33:32;33.35;;;14.27;;
68353;SDS011;55274;43.060;25.618;2023-02-15T00:35:58;35.20;;;14.10;;
68353;SDS011;55274;43.060;25.618;2023-02-15T00:38:26;31.98;;;13.10;;
68353;SDS011;55274;43.060;25.618;2023-02-15T00:40:59;38.15;;;14.63;;
68353;SDS011;55274;43.060;25.618;2023-02-15T00:43:27;39.20;;;14.23;;
68353;SDS011;55274;43.060;25.618;2023-02-15T00:45:54;35.80;;;13.45;;
68353;SDS011;55274;43.060;25.618;2023-02-15T00:48:23;32.38;;;13.40;;
68353;SDS011;55274;43.060;25.618;2023-02-15T00:50:50;32.67;;;13.10;;
68353;SDS011;55274;43.060;25.618;2023-02-15T00:53:21;36.90;;;13.82;;
68353;SDS011;55274;43.060;25.618;2023-02-15T00:55:47;28.15;;;12.23;;
68353;SDS011;55274;43.060;25.618;2023-02-15T00:58:13;32.92;;;13.02;;
68353;SDS011;55274;43.060;25.618;2023-02-15T01:00:40;36.05;;;13.40;;
68353;SDS011;55274;43.060;25.618;2023-02-15T01:03:08;30.85;;;13.50;;
68353;SDS011;55274;43.060;25.618;2023-02-15T01:05:34;36.47;;;13.45;;
68353;SDS011;55274;43.060;25.618;2023-02-15T01:08:00;32.40;;;12.70;;
68353;SDS011;55274;43.060;25.618;2023-02-15T01:10:26;29.23;;;12.48;;
68353;SDS011;55274;43.060;25.618;2023-02-15T01:12:53;35.60;;;13.93;;
68353;SDS011;55274;43.060;25.618;2023-02-15T01:15:19;33.28;;;12.82;;
68353;SDS011;55274;43.060;25.618;2023-02-15T01:17:46;30.67;;;13.15;;
68353;SDS011;55274;43.060;25.618;2023-02-15T01:20:26;31.92;;;13.50;;
68353;SDS011;55274;43.060;25.618;2023-02-15T01:22:54;35.10;;;12.75;;
68353;SDS011;55274;43.060;25.618;2023-02-15T01:25:22;37.03;;;13.05;;
68353;SDS011;55274;43.060;25.618;2023-02-15T01:27:48;29.67;;;12.98;;
68353;SDS011;55274;43.060;25.618;2023-02-15T01:30:14;37.22;;;13.52;;
68353;SDS011;55274;43.060;25.618;2023-02-15T01:32:41;32.38;;;13.15;;
68353;SDS011;55274;43.060;25.618;2023-02-15T01:35:08;31.60;;;13.15;;
68353;SDS011;55274;43.060;25.618;2023-02-15T01:37:34;36.97;;;14.55;;
68353;SDS011;55274;43.060;25.618;2023-02-15T01:40:02;35.13;;;12.70;;
68353;SDS011;55274;43.060;25.618;2023-02-15T01:42:29;33.88;;;14.52;;
68353;SDS011;55274;43.060;25.618;2023-02-15T01:44:56;30.88;;;12.77;;
68353;SDS011;55274;43.060;25.618;2023-02-15T01:52:58;31.23;;;13.68;;
68353;SDS011;55274;43.060;25.618;2023-02-15T01:55:32;33.38;;;12.75;;
68353;SDS011;55274;43.060;25.618;2023-02-15T01:58:01;29.23;;;12.02;;
68353;SDS011;55274;43.060;25.618;2023-02-15T02:00:27;28.60;;;12.13;;
68353;SDS011;55274;43.060;25.618;2023-02-15T02:02:55;29.30;;;12.10;;
68353;SDS011;55274;43.060;25.618;2023-02-15T02:05:22;29.42;;;12.40;;
68353;SDS011;55274;43.060;25.618;2023-02-15T02:07:48;25.10;;;11.80;;
68353;SDS011;55274;43.060;25.618;2023-02-15T02:10:18;32.20;;;12.23;;
68353;SDS011;55274;43.060;25.618;2023-02-15T02:12:47;31.88;;;13.00;;
68353;SDS011;55274;43.060;25.618;2023-02-15T02:15:15;31.02;;;13.90;;
68353;SDS011;55274;43.060;25.618;2023-02-15T02:34:53;28.55;;;11.35;;
68353;SDS011;55274;43.060;25.618;2023-02-15T02:37:16;34.22;;;12.73;;
68353;SDS011;55274;43.060;25.618;2023-02-15T02:39:49;27.92;;;11.60;;
68353;SDS011;55274;43.060;25.618;2023-02-15T02:45:01;30.45;;;11.40;;
68353;SDS011;55274;43.060;25.618;2023-02-15T02:50:33;31.17;;;11.88;;
68353;SDS011;55274;43.060;25.618;2023-02-15T02:52:59;28.00;;;11.43;;
68353;SDS011;55274;43.060;25.618;2023-02-15T02:58:09;32.25;;;13.25;;
68353;SDS011;55274;43.060;25.618;2023-02-15T03:00:39;35.17;;;11.52;;
68353;SDS011;55274;43.060;25.618;2023-02-15T03:03:49;34.15;;;12.32;;
68353;SDS011;55274;43.060;25.618;2023-02-15T03:06:36;28.10;;;11.23;;
68353;SDS011;55274;43.060;25.618;2023-02-15T03:09:12;81.15;;;18.10;;
68353;SDS011;55274;43.060;25.618;2023-02-15T03:11:59;31.33;;;11.95;;
68353;SDS011;55274;43.060;25.618;2023-02-15T03:14:28;40.85;;;12.07;;
68353;SDS011;55274;43.060;25.618;2023-02-15T03:16:54;53.42;;;12.88;;
68353;SDS011;55274;43.060;25.618;2023-02-15T03:19:22;34.90;;;12.32;;
68353;SDS011;55274;43.060;25.618;2023-02-15T03:21:58;32.42;;;12.05;;
68353;SDS011;55274;43.060;25.618;2023-02-15T03:24:38;34.47;;;12.75;;
68353;SDS011;55274;43.060;25.618;2023-02-15T03:27:22;36.85;;;13.55;;
68353;SDS011;55274;43.060;25.618;2023-02-15T03:29:55;34.83;;;12.38;;
68353;SDS011;55274;43.060;25.618;2023-02-15T03:32:24;37.20;;;11.95;;
68353;SDS011;55274;43.060;25.618;2023-02-15T03:34:53;33.78;;;11.90;;
68353;SDS011;55274;43.060;25.618;2023-02-15T03:39:59;32.60;;;13.45;;
68353;SDS011;55274;43.060;25.618;2023-02-15T03:42:55;58.75;;;12.25;;
68353;SDS011;55274;43.060;25.618;2023-02-15T03:45:27;30.20;;;11.40;;
68353;SDS011;55274;43.060;25.618;2023-02-15T03:47:56;30.08;;;10.32;;
68353;SDS011;55274;43.060;25.618;2023-02-15T03:50:26;32.83;;;11.70;;
68353;SDS011;55274;43.060;25.618;2023-02-15T03:53:14;33.47;;;12.15;;
68353;SDS011;55274;43.060;25.618;2023-02-15T03:55:45;28.08;;;10.98;;
68353;SDS011;55274;43.060;25.618;2023-02-15T03:58:12;30.65;;;10.77;;
68353;SDS011;55274;43.060;25.618;2023-02-15T04:01:01;28.55;;;13.10;;
68353;SDS011;55274;43.060;25.618;2023-02-15T04:03:54;33.55;;;12.50;;
68353;SDS011;55274;43.060;25.618;2023-02-15T04:06:26;36.83;;;12.40;;
68353;SDS011;55274;43.060;25.618;2023-02-15T04:08:51;38.95;;;12.55;;
68353;SDS011;55274;43.060;25.618;2023-02-15T04:11:36;39.22;;;12.73;;
68353;SDS011;55274;43.060;25.618;2023-02-15T04:14:01;35.35;;;13.15;;
68353;SDS011;55274;43.060;25.618;2023-02-15T04:16:47;36.47;;;13.93;;
68353;SDS011;55274;43.060;25.618;2023-02-15T04:19:13;72.00;;;15.20;;
68353;SDS011;55274;43.060;25.618;2023-02-15T04:21:57;35.05;;;12.82;;
68353;SDS011;55274;43.060;25.618;2023-02-15T04:24:41;42.42;;;13.05;;
68353;SDS011;55274;43.060;25.618;2023-02-15T04:27:25;34.17;;;12.25;;
68353;SDS011;55274;43.060;25.618;2023-02-15T04:29:51;27.65;;;10.57;;
68353;SDS011;55274;43.060;25.618;2023-02-15T04:32:16;38.85;;;10.98;;
68353;SDS011;55274;43.060;25.618;2023-02-15T04:34:42;30.80;;;12.02;;
68353;SDS011;55274;43.060;25.618;2023-02-15T04:37:08;32.35;;;12.27;;
68353;SDS011;55274;43.060;25.618;2023-02-15T04:39:35;38.28;;;12.32;;
68353;SDS011;55274;43.060;25.618;2023-02-15T04:42:01;34.25;;;12.15;;
68353;SDS011;55274;43.060;25.618;2023-02-15T04:44:26;39.75;;;12.35;;
68353;SDS011;55274;43.060;25.618;2023-02-15T04:46:52;38.08;;;12.57;;
68353;SDS011;55274;43.060;25.618;2023-02-15T04:49:18;28.77;;;10.60;;
68353;SDS011;55274;43.060;25.618;2023-02-15T04:51:44;28.23;;;11.70;;
68353;SDS011;55274;43.060;25.618;2023-02-15T04:54:09;39.55;;;12.02;;
68353;SDS011;55274;43.060;25.618;2023-02-15T04:56:35;48.17;;;11.23;;
68353;SDS011;55274;43.060;25.618;2023-02-15T04:59:03;38.58;;;12.48;;
68353;SDS011;55274;43.060;25.618;2023-02-15T05:01:28;32.70;;;13.30;;
68353;SDS011;55274;43.060;25.618;2023-02-15T05:03:54;59.63;;;12.73;;
68353;SDS011;55274;43.060;25.618;2023-02-15T05:06:20;31.88;;;12.05;;
68353;SDS011;55274;43.060;25.618;2023-02-15T05:08:46;37.13;;;11.85;;
68353;SDS011;55274;43.060;25.618;2023-02-15T05:11:12;39.38;;;12.88;;
68353;SDS011;55274;43.060;25.618;2023-02-15T05:13:37;53.80;;;13.02;;
68353;SDS011;55274;43.060;25.618;2023-02-15T05:16:03;42.90;;;12.43;;
68353;SDS011;55274;43.060;25.618;2023-02-15T05:18:29;34.90;;;12.07;;
68353;SDS011;55274;43.060;25.618;2023-02-15T05:20:55;58.05;;;13.93;;
68353;SDS011;55274;43.060;25.618;2023-02-15T05:23:21;49.78;;;12.55;;
68353;SDS011;55274;43.060;25.618;2023-02-15T05:25:47;50.45;;;13.55;;
68353;SDS011;55274;43.060;25.618;2023-02-15T05:28:33;42.28;;;13.95;;
68353;SDS011;55274;43.060;25.618;2023-02-15T05:33:28;36.67;;;12.10;;
68353;SDS011;55274;43.060;25.618;2023-02-15T05:35:54;33.92;;;13.07;;
68353;SDS011;55274;43.060;25.618;2023-02-15T05:38:19;34.60;;;11.98;;
68353;SDS011;55274;43.060;25.618;2023-02-15T05:40:45;44.40;;;14.63;;
68353;SDS011;55274;43.060;25.618;2023-02-15T05:43:11;38.03;;;14.13;;
68353;SDS011;55274;43.060;25.618;2023-02-15T05:45:37;46.95;;;13.65;;
68353;SDS011;55274;43.060;25.618;2023-02-15T05:48:02;49.40;;;14.88;;
68353;SDS011;55274;43.060;25.618;2023-02-15T05:50:28;47.95;;;15.65;;
68353;SDS011;55274;43.060;25.618;2023-02-15T05:52:54;60.72;;;16.42;;
68353;SDS011;55274;43.060;25.618;2023-02-15T05:55:20;64.45;;;15.85;;
68353;SDS011;55274;43.060;25.618;2023-02-15T05:57:45;58.17;;;16.23;;
68353;SDS011;55274;43.060;25.618;2023-02-15T06:00:12;117.53;;;18.38;;
68353;SDS011;55274;43.060;25.618;2023-02-15T06:02:39;54.53;;;16.08;;
68353;SDS011;55274;43.060;25.618;2023-02-15T06:05:05;65.55;;;19.65;;
68353;SDS011;55274;43.060;25.618;2023-02-15T06:07:31;63.70;;;19.10;;
68353;SDS011;55274;43.060;25.618;2023-02-15T06:09:57;48.55;;;18.60;;
68353;SDS011;55274;43.060;25.618;2023-02-15T06:12:23;51.28;;;17.42;;
68353;SDS011;55274;43.060;25.618;2023-02-15T06:14:49;42.38;;;16.27;;
68353;SDS011;55274;43.060;25.618;2023-02-15T06:17:15;53.20;;;18.52;;
68353;SDS011;55274;43.060;25.618;2023-02-15T06:19:41;53.75;;;16.48;;
68353;SDS011;55274;43.060;25.618;2023-02-15T06:22:07;45.85;;;16.15;;
68353;SDS011;55274;43.060;25.618;2023-02-15T06:24:33;49.88;;;16.65;;
68353;SDS011;55274;43.060;25.618;2023-02-15T06:26:59;48.22;;;17.15;;
68353;SDS011;55274;43.060;25.618;2023-02-15T06:29:25;71.45;;;19.05;;
68353;SDS011;55274;43.060;25.618;2023-02-15T06:31:51;50.72;;;17.17;;
68353;SDS011;55274;43.060;25.618;2023-02-15T06:34:16;61.67;;;16.90;;
68353;SDS011;55274;43.060;25.618;2023-02-15T06:36:42;67.68;;;14.52;;
68353;SDS011;55274;43.060;25.618;2023-02-15T06:39:08;53.75;;;15.48;;
68353;SDS011;55274;43.060;25.618;2023-02-15T06:41:35;73.68;;;20.02;;
68353;SDS011;55274;43.060;25.618;2023-02-15T06:44:00;96.00;;;27.55;;
68353;SDS011;55274;43.060;25.618;2023-02-15T06:46:26;101.75;;;28.13;;
68353;SDS011;55274;43.060;25.618;2023-02-15T06:48:53;79.22;;;24.65;;
68353;SDS011;55274;43.060;25.618;2023-02-15T06:51:18;83.47;;;26.80;;
68353;SDS011;55274;43.060;25.618;2023-02-15T06:53:44;97.05;;;32.05;;
68353;SDS011;55274;43.060;25.618;2023-02-15T06:56:10;103.70;;;33.58;;
68353;SDS011;55274;43.060;25.618;2023-02-15T06:58:37;103.80;;;30.52;;
68353;SDS011;55274;43.060;25.618;2023-02-15T07:01:06;83.57;;;26.17;;
68353;SDS011;55274;43.060;25.618;2023-02-15T07:03:33;77.65;;;24.58;;
68353;SDS011;55274;43.060;25.618;2023-02-15T07:06:00;70.50;;;23.10;;
68353;SDS011;55274;43.060;25.618;2023-02-15T07:08:28;68.18;;;21.65;;
68353;SDS011;55274;43.060;25.618;2023-02-15T07:10:54;79.93;;;21.65;;
68353;SDS011;55274;43.060;25.618;2023-02-15T07:13:40;77.68;;;24.83;;
68353;SDS011;55274;43.060;25.618;2023-02-15T07:16:07;72.78;;;26.00;;
68353;SDS011;55274;43.060;25.618;2023-02-15T07:18:34;82.43;;;25.45;;
68353;SDS011;55274;43.060;25.618;2023-02-15T07:20:59;84.07;;;22.63;;
68353;SDS011;55274;43.060;25.618;2023-02-15T07:23:25;68.78;;;22.00;;
68353;SDS011;55274;43.060;25.618;2023-02-15T07:26:00;47.60;;;19.02;;
68353;SDS011;55274;43.060;25.618;2023-02-15T07:28:27;58.28;;;21.10;;
68353;SDS011;55274;43.060;25.618;2023-02-15T07:30:53;53.25;;;22.17;;
68353;SDS011;55274;43.060;25.618;2023-02-15T07:33:19;63.35;;;25.95;;
68353;SDS011;55274;43.060;25.618;2023-02-15T07:35:48;69.50;;;26.23;;
68353;SDS011;55274;43.060;25.618;2023-02-15T07:38:14;76.20;;;21.23;;
68353;SDS011;55274;43.060;25.618;2023-02-15T07:40:40;67.20;;;21.17;;
68353;SDS011;55274;43.060;25.618;2023-02-15T07:43:06;55.67;;;19.95;;
68353;SDS011;55274;43.060;25.618;2023-02-15T07:45:32;43.83;;;19.40;;
68353;SDS011;55274;43.060;25.618;2023-02-15T07:47:57;44.20;;;18.08;;
68353;SDS011;55274;43.060;25.618;2023-02-15T07:50:26;47.95;;;19.05;;
68353;SDS011;55274;43.060;25.618;2023-02-15T07:52:51;48.72;;;18.25;;
68353;SDS011;55274;43.060;25.618;2023-02-15T07:55:17;52.17;;;18.77;;
68353;SDS011;55274;43.060;25.618;2023-02-15T07:57:44;37.88;;;14.25;;
68353;SDS011;55274;43.060;25.618;2023-02-15T08:00:11;44.10;;;16.15;;
68353;SDS011;55274;43.060;25.618;2023-02-15T08:02:40;44.90;;;15.98;;
68353;SDS011;55274;43.060;25.618;2023-02-15T08:05:39;47.70;;;16.30;;
68353;SDS011;55274;43.060;25.618;2023-02-15T08:08:06;32.42;;;12.80;;
68353;SDS011;55274;43.060;25.618;2023-02-15T08:10:34;31.17;;;11.95;;
68353;SDS011;55274;43.060;25.618;2023-02-15T08:13:19;26.38;;;11.63;;
68353;SDS011;55274;43.060;25.618;2023-02-15T08:15:49;29.05;;;12.25;;
68353;SDS011;55274;43.060;25.618;2023-02-15T08:18:16;29.90;;;11.80;;
68353;SDS011;55274;43.060;25.618;2023-02-15T08:20:42;48.30;;;17.73;;
68353;SDS011;55274;43.060;25.618;2023-02-15T08:23:13;81.18;;;29.63;;
68353;SDS011;55274;43.060;25.618;2023-02-15T08:25:39;130.35;;;49.40;;
68353;SDS011;55274;43.060;25.618;2023-02-15T08:28:05;115.22;;;44.17;;
68353;SDS011;55274;43.060;25.618;2023-02-15T08:30:31;32.00;;;14.30;;
68353;SDS011;55274;43.060;25.618;2023-02-15T08:32:56;28.80;;;12.52;;
68353;SDS011;55274;43.060;25.618;2023-02-15T08:35:22;23.02;;;10.85;;
68353;SDS011;55274;43.060;25.618;2023-02-15T08:37:48;43.75;;;14.48;;
68353;SDS011;55274;43.060;25.618;2023-02-15T08:40:14;29.85;;;8.80;;
68353;SDS011;55274;43.060;25.618;2023-02-15T08:42:40;24.70;;;9.98;;
68353;SDS011;55274;43.060;25.618;2023-02-15T08:45:05;24.98;;;9.48;;
68353;SDS011;55274;43.060;25.618;2023-02-15T08:47:32;28.38;;;11.57;;
68353;SDS011;55274;43.060;25.618;2023-02-15T08:49:57;27.83;;;10.65;;
68353;SDS011;55274;43.060;25.618;2023-02-15T08:52:23;22.27;;;8.30;;
68353;SDS011;55274;43.060;25.618;2023-02-15T08:54:49;30.23;;;10.60;;
68353;SDS011;55274;43.060;25.618;2023-02-15T08:57:15;24.90;;;8.50;;
68353;SDS011;55274;43.060;25.618;2023-02-15T08:59:40;26.85;;;10.25;;
68353;SDS011;55274;43.060;25.618;2023-02-15T09:02:09;19.85;;;8.38;;
68353;SDS011;55274;43.060;25.618;2023-02-15T09:04:35;16.92;;;7.68;;
68353;SDS011;55274;43.060;25.618;2023-02-15T09:07:01;27.65;;;9.50;;
68353;SDS011;55274;43.060;25.618;2023-02-15T09:09:29;30.55;;;11.48;;
68353;SDS011;55274;43.060;25.618;2023-02-15T09:11:56;34.50;;;12.18;;
68353;SDS011;55274;43.060;25.618;2023-02-15T09:14:22;23.42;;;9.30;;
68353;SDS011;55274;43.060;25.618;2023-02-15T09:16:49;25.13;;;11.02;;
68353;SDS011;55274;43.060;25.618;2023-02-15T09:19:17;19.27;;;7.95;;
68353;SDS011;55274;43.060;25.618;2023-02-15T09:21:44;23.05;;;9.30;;
68353;SDS011;55274;43.060;25.618;2023-02-15T09:24:12;25.02;;;10.75;;
68353;SDS011;55274;43.060;25.618;2023-02-15T09:26:40;20.77;;;8.43;;
68353;SDS011;55274;43.060;25.618;2023-02-15T09:29:08;18.02;;;8.27;;
68353;SDS011;55274;43.060;25.618;2023-02-15T09:31:39;25.40;;;10.38;;
68353;SDS011;55274;43.060;25.618;2023-02-15T09:34:09;17.63;;;7.88;;
68353;SDS011;55274;43.060;25.618;2023-02-15T09:36:36;16.90;;;7.95;;
68353;SDS011;55274;43.060;25.618;2023-02-15T09:58:54;16.38;;;7.63;;
68353;SDS011;55274;43.060;25.618;2023-02-15T10:07:49;14.10;;;6.82;;
68353;SDS011;55274;43.060;25.618;2023-02-15T10:10:44;14.60;;;6.63;;
68353;SDS011;55274;43.060;25.618;2023-02-15T10:13:53;22.95;;;11.10;;
68353;SDS011;55274;43.060;25.618;2023-02-15T10:16:46;20.25;;;7.00;;
68353;SDS011;55274;43.060;25.618;2023-02-15T10:19:37;24.40;;;9.85;;
68353;SDS011;55274;43.060;25.618;2023-02-15T10:22:14;18.42;;;8.52;;
68353;SDS011;55274;43.060;25.618;2023-02-15T10:27:43;15.70;;;6.32;;
68353;SDS011;55274;43.060;25.618;2023-02-15T10:30:18;15.70;;;7.22;;
68353;SDS011;55274;43.060;25.618;2023-02-15T10:33:00;22.42;;;10.20;;
68353;SDS011;55274;43.060;25.618;2023-02-15T10:35:43;26.48;;;9.55;;
68353;SDS011;55274;43.060;25.618;2023-02-15T10:57:46;21.50;;;9.10;;
68353;SDS011;55274;43.060;25.618;2023-02-15T11:00:23;22.23;;;9.60;;
68353;SDS011;55274;43.060;25.618;2023-02-15T11:03:04;13.23;;;6.40;;
68353;SDS011;55274;43.060;25.618;2023-02-15T11:05:40;29.58;;;10.93;;
68353;SDS011;55274;43.060;25.618;2023-02-15T11:08:25;23.60;;;9.93;;
68353;SDS011;55274;43.060;25.618;2023-02-15T11:10:57;24.88;;;9.82;;
68353;SDS011;55274;43.060;25.618;2023-02-15T11:13:32;19.65;;;8.18;;
68353;SDS011;55274;43.060;25.618;2023-02-15T11:16:15;15.48;;;6.80;;
68353;SDS011;55274;43.060;25.618;2023-02-15T11:23:58;21.85;;;7.50;;
68353;SDS011;55274;43.060;25.618;2023-02-15T11:26:36;33.33;;;10.50;;
68353;SDS011;55274;43.060;25.618;2023-02-15T11:37:23;19.27;;;7.65;;
68353;SDS011;55274;43.060;25.618;2023-02-15T11:39:53;16.73;;;7.82;;
68353;SDS011;55274;43.060;25.618;2023-02-15T11:42:21;33.40;;;12.05;;
68353;SDS011;55274;43.060;25.618;2023-02-15T11:44:58;15.15;;;6.20;;
68353;SDS011;55274;43.060;25.618;2023-02-15T11:47:24;16.38;;;6.72;;
68353;SDS011;55274;43.060;25.618;2023-02-15T11:49:50;16.23;;;7.05;;
68353;SDS011;55274;43.060;25.618;2023-02-15T11:55:28;22.95;;;6.72;;
68353;SDS011;55274;43.060;25.618;2023-02-15T12:00:40;15.20;;;5.97;;
68353;SDS011;55274;43.060;25.618;2023-02-15T12:03:17;12.10;;;6.07;;
68353;SDS011;55274;43.060;25.618;2023-02-15T12:05:49;26.02;;;7.10;;
68353;SDS011;55274;43.060;25.618;2023-02-15T12:08:21;12.88;;;6.40;;
68353;SDS011;55274;43.060;25.618;2023-02-15T12:13:53;12.43;;;6.25;;
68353;SDS011;55274;43.060;25.618;2023-02-15T12:16:26;13.57;;;5.68;;
68353;SDS011;55274;43.060;25.618;2023-02-15T12:18:57;15.40;;;5.13;;
68353;SDS011;55274;43.060;25.618;2023-02-15T12:21:46;23.67;;;8.40;;
68353;SDS011;55274;43.060;25.618;2023-02-15T12:24:23;20.42;;;6.15;;
68353;SDS011;55274;43.060;25.618;2023-02-15T12:26:56;10.88;;;4.95;;
68353;SDS011;55274;43.060;25.618;2023-02-15T12:29:27;16.13;;;5.07;;
68353;SDS011;55274;43.060;25.618;2023-02-15T12:31:59;17.88;;;6.40;;
68353;SDS011;55274;43.060;25.618;2023-02-15T12:36:56;21.85;;;6.03;;
68353;SDS011;55274;43.060;25.618;2023-02-15T12:39:28;15.73;;;7.22;;
68353;SDS011;55274;43.060;25.618;2023-02-15T12:44:25;17.48;;;6.43;;
68353;SDS011;55274;43.060;25.618;2023-02-15T12:49:25;26.52;;;10.80;;
68353;SDS011;55274;43.060;25.618;2023-02-15T12:54:46;18.83;;;6.03;;
68353;SDS011;55274;43.060;25.618;2023-02-15T12:57:15;10.68;;;6.05;;
68353;SDS011;55274;43.060;25.618;2023-02-15T12:59:57;13.90;;;5.60;;
68353;SDS011;55274;43.060;25.618;2023-02-15T13:05:19;27.02;;;10.35;;
68353;SDS011;55274;43.060;25.618;2023-02-15T13:10:36;19.38;;;7.20;;
68353;SDS011;55274;43.060;25.618;2023-02-15T13:13:16;15.82;;;7.65;;
68353;SDS011;55274;43.060;25.618;2023-02-15T13:15:48;13.32;;;6.35;;
68353;SDS011;55274;43.060;25.618;2023-02-15T13:18:17;13.95;;;6.82;;
68353;SDS011;55274;43.060;25.618;2023-02-15T13:20:54;14.63;;;6.93;;
68353;SDS011;55274;43.060;25.618;2023-02-15T13:23:28;18.50;;;6.65;;
68353;SDS011;55274;43.060;25.618;2023-02-15T13:25:57;12.77;;;6.32;;
68353;SDS011;55274;43.060;25.618;2023-02-15T13:28:37;12.23;;;5.72;;
68353;SDS011;55274;43.060;25.618;2023-02-15T13:31:11;21.73;;;7.32;;
68353;SDS011;55274;43.060;25.618;2023-02-15T13:34:09;15.85;;;6.65;;
68353;SDS011;55274;43.060;25.618;2023-02-15T13:42:17;16.52;;;6.25;;
68353;SDS011;55274;43.060;25.618;2023-02-15T14:07:46;13.55;;;6.32;;
68353;SDS011;55274;43.060;25.618;2023-02-15T14:10:23;27.92;;;6.90;;
68353;SDS011;55274;43.060;25.618;2023-02-15T14:21:27;19.98;;;7.00;;
68353;SDS011;55274;43.060;25.618;2023-02-15T14:26:50;15.10;;;7.53;;
68353;SDS011;55274;43.060;25.618;2023-02-15T14:29:49;50.97;;;8.93;;
68353;SDS011;55274;43.060;25.618;2023-02-15T14:32:30;19.55;;;6.85;;
68353;SDS011;55274;43.060;25.618;2023-02-15T14:35:16;19.73;;;6.60;;
68353;SDS011;55274;43.060;25.618;2023-02-15T14:49:12;18.40;;;7.32;;
68353;SDS011;55274;43.060;25.618;2023-02-15T14:54:24;14.07;;;7.30;;
68353;SDS011;55274;43.060;25.618;2023-02-15T14:59:36;17.88;;;7.47;;
68353;SDS011;55274;43.060;25.618;2023-02-15T15:09:39;19.08;;;9.48;;
68353;SDS011;55274;43.060;25.618;2023-02-15T15:14:51;18.13;;;8.90;;
68353;SDS011;55274;43.060;25.618;2023-02-15T15:20:03;18.77;;;14.32;;
68353;SDS011;55274;43.060;25.618;2023-02-15T15:22:34;25.90;;;9.13;;
68353;SDS011;55274;43.060;25.618;2023-02-15T15:32:47;20.98;;;8.57;;
68353;SDS011;55274;43.060;25.618;2023-02-15T15:43:31;19.83;;;7.97;;
68353;SDS011;55274;43.060;25.618;2023-02-15T15:49:08;21.02;;;8.88;;
68353;SDS011;55274;43.060;25.618;2023-02-15T15:51:41;23.52;;;9.00;;
68353;SDS011;55274;43.060;25.618;2023-02-15T15:54:12;22.23;;;10.77;;
68353;SDS011;55274;43.060;25.618;2023-02-15T15:56:48;20.77;;;8.68;;
68353;SDS011;55274;43.060;25.618;2023-02-15T15:59:24;24.73;;;8.95;;
68353;SDS011;55274;43.060;25.618;2023-02-15T16:01:53;20.23;;;9.10;;
68353;SDS011;55274;43.060;25.618;2023-02-15T16:04:23;34.28;;;10.77;;
68353;SDS011;55274;43.060;25.618;2023-02-15T16:06:51;20.75;;;9.40;;
68353;SDS011;55274;43.060;25.618;2023-02-15T16:09:18;18.35;;;8.52;;
68353;SDS011;55274;43.060;25.618;2023-02-15T16:11:53;18.08;;;9.63;;
68353;SDS011;55274;43.060;25.618;2023-02-15T16:14:37;18.13;;;8.65;;
68353;SDS011;55274;43.060;25.618;2023-02-15T16:17:06;18.55;;;9.40;;
68353;SDS011;55274;43.060;25.618;2023-02-15T16:19:39;38.08;;;9.68;;
68353;SDS011;55274;43.060;25.618;2023-02-15T16:22:18;29.73;;;8.93;;
68353;SDS011;55274;43.060;25.618;2023-02-15T16:27:37;32.03;;;9.30;;
68353;SDS011;55274;43.060;25.618;2023-02-15T16:30:27;49.53;;;9.98;;
68353;SDS011;55274;43.060;25.618;2023-02-15T16:32:54;39.88;;;10.07;;
68353;SDS011;55274;43.060;25.618;2023-02-15T16:35:29;36.30;;;9.43;;
68353;SDS011;55274;43.060;25.618;2023-02-15T16:37:55;40.13;;;9.43;;
68353;SDS011;55274;43.060;25.618;2023-02-15T16:42:50;71.43;;;11.57;;
68353;SDS011;55274;43.060;25.618;2023-02-15T16:45:18;37.25;;;10.32;;
68353;SDS011;55274;43.060;25.618;2023-02-15T16:47:48;58.70;;;10.95;;
68353;SDS011;55274;43.060;25.618;2023-02-15T16:50:24;44.20;;;10.10;;
68353;SDS011;55274;43.060;25.618;2023-02-15T16:52:58;36.45;;;8.45;;
68353;SDS011;55274;43.060;25.618;2023-02-15T16:55:26;36.65;;;9.57;;
68353;SDS011;55274;43.060;25.618;2023-02-15T16:58:04;38.97;;;10.43;;
68353;SDS011;55274;43.060;25.618;2023-02-15T17:00:36;49.97;;;9.50;;
68353;SDS011;55274;43.060;25.618;2023-02-15T17:03:04;36.28;;;8.88;;
68353;SDS011;55274;43.060;25.618;2023-02-15T17:05:51;32.90;;;9.20;;
68353;SDS011;55274;43.060;25.618;2023-02-15T17:08:25;31.83;;;9.15;;
68353;SDS011;55274;43.060;25.618;2023-02-15T17:11:12;32.00;;;8.63;;
68353;SDS011;55274;43.060;25.618;2023-02-15T17:13:39;31.63;;;9.07;;
68353;SDS011;55274;43.060;25.618;2023-02-15T17:16:31;61.95;;;10.85;;
68353;SDS011;55274;43.060;25.618;2023-02-15T17:19:00;33.10;;;8.77;;
68353;SDS011;55274;43.060;25.618;2023-02-15T17:21:30;27.15;;;8.95;;
68353;SDS011;55274;43.060;25.618;2023-02-15T17:24:01;25.63;;;8.13;;
68353;SDS011;55274;43.060;25.618;2023-02-15T17:26:32;23.42;;;8.70;;
68353;SDS011;55274;43.060;25.618;2023-02-15T17:29:02;26.55;;;8.85;;
68353;SDS011;55274;43.060;25.618;2023-02-15T17:31:51;46.95;;;9.73;;
68353;SDS011;55274;43.060;25.618;2023-02-15T17:37:11;31.67;;;8.68;;
68353;SDS011;55274;43.060;25.618;2023-02-15T17:39:47;20.20;;;7.93;;
68353;SDS011;55274;43.060;25.618;2023-02-15T17:42:13;40.15;;;10.38;;
68353;SDS011;55274;43.060;25.618;2023-02-15T17:44:38;31.23;;;12.57;;
68353;SDS011;55274;43.060;25.618;2023-02-15T17:47:04;35.58;;;13.68;;
68353;SDS011;55274;43.060;25.618;2023-02-15T17:49:30;25.98;;;11.52;;
68353;SDS011;55274;43.060;25.618;2023-02-15T17:52:00;26.60;;;11.88;;
68353;SDS011;55274;43.060;25.618;2023-02-15T17:54:26;28.27;;;11.73;;
68353;SDS011;55274;43.060;25.618;2023-02-15T17:57:12;35.67;;;11.77;;
68353;SDS011;55274;43.060;25.618;2023-02-15T17:59:38;32.25;;;11.95;;
68353;SDS011;55274;43.060;25.618;2023-02-15T18:02:23;32.33;;;12.25;;
68353;SDS011;55274;43.060;25.618;2023-02-15T18:05:13;39.15;;;14.02;;
68353;SDS011;55274;43.060;25.618;2023-02-15T18:07:58;36.22;;;13.90;;
68353;SDS011;55274;43.060;25.618;2023-02-15T18:10:42;34.05;;;14.40;;
68353;SDS011;55274;43.060;25.618;2023-02-15T18:13:26;41.20;;;14.95;;
68353;SDS011;55274;43.060;25.618;2023-02-15T18:15:52;35.08;;;14.43;;